Terminal Aerodrome Forecast
Issued by NWS Shreveport, LA

Home | Current Version | Previous Version | Text Only | Print | Product List | Glossary On
Versions: 1 2 3 4 5 6 7 8 9 10 11 12 13 14 15 16 17
000
FTUS44 KSHV 210900 AAA
TAFTYR
TAF AMD
KTYR 210917Z 2109/2206 00000KT 6SM BR OVC040
      TEMPO 2109/2112 2SM BR SCT002
     FM211200 12004KT 4SM BR SCT002
      TEMPO 2112/2115 2SM BR
     FM211600 14005KT P6SM SCT008 BKN025
     FM211800 15008KT P6SM SCT008 OVC017
     FM212000 15008KT P6SM BKN030
     FM220000 17007KT P6SM SCT035 SCT250=

USA.gov is the U.S. government's official web portal to all federal, state and local government web resources and services.